Time;durP1;ratioP1;P1;durP2;ratioP2;P2;SDS_P1;SDS_P2;PMS_P1;PMS_P2;Temp;Humidity;BMP_temperature;BMP_pressure;BME280_temperature;BME280_humidity;BME280_pressure;Samples;Min_cycle;Max_cycle;Signal;HPM_P1;HPM_P2
2022/12/04 00:01:36;;;;;;;88.43;35.72;;;;;;;-2.19;98.37;99026.09;5000167;28;20095;-82
2022/12/04 00:04:02;;;;;;;77.40;33.63;;;;;;;-2.20;98.47;99032.28;5014613;28;20040;-82
2022/12/04 00:06:28;;;;;;;91.63;35.75;;;;;;;-2.17;98.54;99024.97;4997679;28;20529;-82
2022/12/04 00:08:53;;;;;;;80.32;34.10;;;;;;;-2.16;98.61;99023.97;5014804;28;21151;-82
2022/12/04 00:11:22;;;;;;;87.45;35.55;;;;;;;-2.17;98.20;99030.19;4996893;28;20041;-82
2022/12/04 00:13:48;;;;;;;81.15;33.92;;;;;;;-2.14;98.26;99031.66;5017383;28;20041;-82
2022/12/04 00:16:19;;;;;;;86.38;35.78;;;;;;;-2.28;98.37;99007.81;5017686;28;20373;-82
2022/12/04 00:18:44;;;;;;;93.85;38.90;;;;;;;-2.10;98.79;99039.00;4999287;28;20033;-82
2022/12/04 00:21:13;;;;;;;79.03;31.95;;;;;;;-2.12;98.77;99022.69;5013177;28;20041;-82
2022/12/04 00:23:39;;;;;;;79.80;33.83;;;;;;;-2.29;98.68;99021.84;5017368;28;20045;-82
2022/12/04 00:26:15;;;;;;;84.20;33.13;;;;;;;-2.31;99.35;99012.53;5015396;28;20030;-82
2022/12/04 00:28:41;;;;;;;87.82;35.67;;;;;;;-2.37;98.92;99002.72;5015860;28;20045;-82
2022/12/04 00:31:08;;;;;;;91.53;36.65;;;;;;;-2.30;98.94;99001.94;5001710;28;20386;-82
2022/12/04 00:33:35;;;;;;;73.68;33.22;;;;;;;-2.27;99.07;99013.81;5017850;28;20110;-83
2022/12/04 00:36:03;;;;;;;80.07;34.42;;;;;;;-2.33;98.64;98989.16;5002002;28;20120;-82
2022/12/04 00:38:28;;;;;;;91.53;34.70;;;;;;;-2.12;98.95;99014.00;5014340;28;20036;-82
2022/12/04 00:40:54;;;;;;;83.40;34.58;;;;;;;-2.31;98.48;98987.22;4993748;28;20494;-83
2022/12/04 00:43:21;;;;;;;83.10;32.05;;;;;;;-2.13;98.49;99009.75;5014138;28;20037;-82
2022/12/04 00:45:46;;;;;;;81.50;35.85;;;;;;;-2.12;98.85;99000.94;5016293;28;20045;-82
2022/12/04 00:48:12;;;;;;;92.80;36.67;;;;;;;-1.91;98.17;98993.38;5016051;28;20037;-82
2022/12/04 00:50:37;;;;;;;84.03;36.05;;;;;;;-1.92;98.67;99004.84;5016742;28;20030;-82
2022/12/04 00:53:03;;;;;;;103.88;40.50;;;;;;;-2.02;98.69;99006.81;4997497;28;20048;-82
2022/12/04 00:55:29;;;;;;;93.18;36.47;;;;;;;-2.28;98.84;98976.44;5014170;28;20030;-82
2022/12/04 00:57:54;;;;;;;93.72;36.92;;;;;;;-2.16;99.52;98984.75;5011888;28;20033;-81
2022/12/04 01:00:19;;;;;;;92.38;38.13;;;;;;;-1.98;98.99;98979.34;5000242;28;20034;-82
2022/12/04 01:02:45;;;;;;;88.10;35.30;;;;;;;-1.86;98.53;98994.53;4981648;28;20029;-82
2022/12/04 01:05:11;;;;;;;91.10;36.67;;;;;;;-2.12;99.21;98970.38;5013605;28;20100;-82
2022/12/04 01:07:37;;;;;;;89.53;34.80;;;;;;;-2.19;99.43;98972.03;4997017;28;20137;-82
2022/12/04 01:10:05;;;;;;;80.95;30.80;;;;;;;-2.29;99.47;98974.78;5017164;28;20549;-81
2022/12/04 01:12:30;;;;;;;81.55;34.05;;;;;;;-2.25;99.14;98975.31;5007030;28;20120;-82
2022/12/04 01:14:56;;;;;;;80.90;33.80;;;;;;;-2.16;99.18;98971.69;5000522;28;20476;-82
2022/12/04 01:17:22;;;;;;;79.53;31.35;;;;;;;-2.19;99.00;98974.63;5016833;28;20072;-82
2022/12/04 01:19:47;;;;;;;77.07;32.53;;;;;;;-2.23;99.41;98968.09;5010061;28;20113;-82
2022/12/04 01:22:13;;;;;;;76.60;31.40;;;;;;;-1.93;99.68;98980.50;5016111;28;20033;-82
2022/12/04 01:24:38;;;;;;;76.03;30.70;;;;;;;-2.02;98.63;98975.44;5014456;28;20121;-82
2022/12/04 01:27:04;;;;;;;77.22;30.60;;;;;;;-2.09;98.65;98964.00;5015031;28;20934;-82
2022/12/04 01:29:29;;;;;;;66.93;28.38;;;;;;;-2.10;99.17;98978.06;4988497;28;20079;-82
2022/12/04 01:31:55;;;;;;;83.20;33.95;;;;;;;-1.95;99.21;98992.91;5006996;28;20069;-82
2022/12/04 01:34:20;;;;;;;65.07;27.05;;;;;;;-1.96;99.07;98988.66;5014268;28;20044;-82
2022/12/04 01:36:47;;;;;;;71.53;29.13;;;;;;;-1.75;98.36;98988.13;4998860;28;20040;-82
2022/12/04 01:39:12;;;;;;;74.05;30.80;;;;;;;-1.84;98.64;98986.53;5017056;28;20120;-82
2022/12/04 01:41:37;;;;;;;72.75;30.40;;;;;;;-1.81;98.70;98983.56;5014459;28;20082;-81
2022/12/04 01:44:21;;;;;;;69.95;30.17;;;;;;;-2.02;98.44;98978.88;4998929;28;20051;-82
2022/12/04 01:46:53;;;;;;;68.45;28.73;;;;;;;-2.04;98.99;98970.38;5017859;28;20064;-82
2022/12/04 01:49:35;;;;;;;69.13;30.65;;;;;;;-2.13;99.19;98954.84;5016043;28;20053;-81
2022/12/04 01:52:07;;;;;;;73.10;31.50;;;;;;;-1.96;98.97;98978.19;5022480;28;20055;-81
2022/12/04 01:54:38;;;;;;;84.80;31.58;;;;;;;-2.01;99.30;98956.94;5021028;28;20127;-82
2022/12/04 01:57:13;;;;;;;60.67;27.52;;;;;;;-1.96;99.51;98982.59;5020385;28;20033;-82
2022/12/04 01:59:55;;;;;;;68.78;29.92;;;;;;;-1.85;98.55;98956.94;5008142;28;20040;-82
2022/12/04 02:02:26;;;;;;;72.15;28.15;;;;;;;-1.89;99.11;98986.19;5018612;28;20432;-82
2022/12/04 02:04:52;;;;;;;68.50;28.05;;;;;;;-1.89;98.46;98968.72;5019576;28;21726;-82
2022/12/04 02:07:17;;;;;;;77.15;28.80;;;;;;;-2.07;98.53;98965.47;5020035;28;20037;-82
2022/12/04 02:09:44;;;;;;;65.25;27.92;;;;;;;-2.06;98.92;98963.66;5020672;28;20521;-82
2022/12/04 02:12:48;;;;;;;63.63;28.15;;;;;;;-1.99;99.10;98981.16;5005736;28;20037;-82
2022/12/04 02:15:17;;;;;;;65.85;28.48;;;;;;;-2.01;99.73;98974.47;5022275;28;20076;-82
2022/12/04 02:18:04;;;;;;;75.28;30.17;;;;;;;-1.74;99.56;98989.75;5017228;28;20953;-82
2022/12/04 02:20:39;;;;;;;70.82;30.70;;;;;;;-1.75;99.02;98983.69;5005803;28;20032;-82
2022/12/04 02:23:25;;;;;;;69.75;28.38;;;;;;;-1.82;99.11;98984.56;5016711;28;21905;-83
2022/12/04 02:26:36;;;;;;;68.32;29.38;;;;;;;-1.92;99.69;98976.88;5017438;28;20029;-82
2022/12/04 02:29:10;;;;;;;77.18;30.48;;;;;;;-1.84;98.80;98971.66;5007030;28;20045;-83
2022/12/04 02:31:41;;;;;;;73.18;31.88;;;;;;;-2.00;99.88;98947.31;5013488;28;20033;-82
2022/12/04 02:34:22;;;;;;;75.57;29.42;;;;;;;-1.71;99.65;98942.34;5016944;28;20375;-83
2022/12/04 02:36:55;;;;;;;68.70;28.92;;;;;;;-1.71;98.16;98977.19;5018741;28;20163;-82
2022/12/04 02:39:34;;;;;;;61.80;28.08;;;;;;;-1.41;98.61;98943.38;5023691;28;20595;-82
2022/12/04 02:42:10;;;;;;;70.65;27.58;;;;;;;-1.79;97.65;98950.22;5017449;28;20021;-83
2022/12/04 02:45:12;;;;;;;78.53;29.88;;;;;;;-1.58;99.44;98958.34;5017267;28;20033;-82
2022/12/04 02:47:41;;;;;;;74.38;29.17;;;;;;;-1.86;98.49;98947.47;4999744;28;20981;-82
2022/12/04 02:50:12;;;;;;;77.90;28.83;;;;;;;-1.80;99.05;98953.81;5020407;28;20033;-82
2022/12/04 02:52:42;;;;;;;80.82;33.25;;;;;;;-1.82;99.54;98956.59;5009467;28;20044;-82
2022/12/04 02:55:18;;;;;;;74.18;29.15;;;;;;;-1.56;98.89;98941.47;5016713;28;20039;-82
2022/12/04 02:57:50;;;;;;;82.97;33.22;;;;;;;-1.60;98.12;98949.84;5010196;28;20025;-82
2022/12/04 03:00:16;;;;;;;66.35;30.42;;;;;;;-1.57;97.79;98924.13;5021062;28;20124;-82
2022/12/04 03:03:10;;;;;;;66.38;27.80;;;;;;;-1.52;97.80;98952.41;5009573;28;20396;-82
2022/12/04 03:05:47;;;;;;;71.45;30.63;;;;;;;-1.86;98.85;98937.00;5018869;28;20501;-82
2022/12/04 03:08:17;;;;;;;81.28;31.60;;;;;;;-1.84;98.95;98928.97;5019647;28;20056;-82
2022/12/04 03:10:47;;;;;;;70.93;29.05;;;;;;;-1.75;98.70;98949.69;5003835;28;20033;-82
2022/12/04 03:13:19;;;;;;;73.07;30.67;;;;;;;-1.83;98.87;98941.06;5019613;28;20405;-82
2022/12/04 03:15:56;;;;;;;72.10;29.77;;;;;;;-1.85;99.71;98951.69;5005516;28;20075;-82
2022/12/04 03:18:59;;;;;;;74.28;30.83;;;;;;;-1.77;99.17;98935.19;5016996;28;20018;-82
2022/12/04 03:21:30;;;;;;;74.05;30.95;;;;;;;-1.76;99.63;98947.25;5003383;28;20099;-82
2022/12/04 03:24:05;;;;;;;89.93;31.60;;;;;;;-1.62;99.38;98963.06;5016357;28;20943;-81
2022/12/04 03:26:43;;;;;;;72.20;29.50;;;;;;;-1.82;98.75;98938.28;5017761;28;20025;-82
2022/12/04 03:29:22;;;;;;;68.30;28.40;;;;;;;-1.86;99.48;98944.84;5013086;28;20056;-82
2022/12/04 03:31:53;;;;;;;78.97;31.42;;;;;;;-1.68;99.07;98968.16;5016338;28;21832;-82
2022/12/04 03:34:34;;;;;;;71.43;31.80;;;;;;;-1.83;99.51;98936.66;5017898;28;20576;-82
2022/12/04 03:37:07;;;;;;;68.07;29.08;;;;;;;-1.91;99.92;98941.91;5016350;28;20408;-82
2022/12/04 03:39:43;;;;;;;67.70;30.75;;;;;;;-1.83;99.37;98938.44;5021779;28;20065;-82
2022/12/04 03:42:14;;;;;;;;;;;;;;;-1.48;98.91;98965.97;5022613;28;20033;-82
2022/12/04 03:44:45;;;;;;;82.90;32.22;;;;;;;-1.18;98.60;98958.16;5016677;28;20339;-82
2022/12/04 03:47:17;;;;;;;70.90;27.95;;;;;;;-1.55;98.65;98956.19;5014833;28;20433;-82
2022/12/04 03:49:48;;;;;;;75.65;31.35;;;;;;;-1.58;98.75;98964.38;5015609;28;20039;-82
2022/12/04 03:52:23;;;;;;;66.82;28.45;;;;;;;-1.39;99.36;98954.47;5000545;28;21002;-82
2022/12/04 03:54:56;;;;;;;75.55;32.55;;;;;;;-1.56;99.22;98951.94;5014225;28;20617;-82
2022/12/04 03:57:30;;;;;;;69.03;31.15;;;;;;;-1.61;98.27;98941.16;5017068;28;20030;-82
2022/12/04 04:00:12;;;;;;;78.63;31.73;;;;;;;-1.73;99.40;98937.28;5016235;28;20036;-82
2022/12/04 04:02:44;;;;;;;66.93;29.55;;;;;;;-1.55;98.78;98960.59;5017816;28;20485;-82
2022/12/04 04:05:11;;;;;;;65.90;28.02;;;;;;;-1.52;99.29;98947.19;5014343;28;20037;-82
2022/12/04 04:07:44;;;;;;;80.75;30.67;;;;;;;-1.55;99.66;98957.97;5013812;28;20795;-81
2022/12/04 04:10:14;;;;;;;68.35;28.55;;;;;;;-1.49;99.11;98957.31;5017456;28;20033;-82
2022/12/04 04:24:12;;;;;;;79.03;30.88;;;;;;;-1.49;98.63;98951.25;5011127;28;20512;-82
2022/12/04 04:26:40;;;;;;;69.35;30.15;;;;;;;-1.39;98.35;98954.47;5019349;28;20562;-82
2022/12/04 04:29:08;;;;;;;72.07;28.55;;;;;;;-1.65;99.26;98949.50;5019552;28;20032;-82
2022/12/04 04:31:54;;;;;;;71.55;30.70;;;;;;;-1.71;99.36;98942.34;4985308;28;20095;-82
2022/12/04 04:34:41;;;;;;;72.40;28.42;;;;;;;-1.29;98.73;98955.13;5017477;28;20029;-83
2022/12/04 04:37:27;;;;;;;77.82;33.08;;;;;;;-1.34;98.55;98960.03;5016460;28;20030;-82
2022/12/04 04:40:05;;;;;;;72.38;30.05;;;;;;;-1.35;99.25;98964.44;5015418;28;20089;-83
2022/12/04 04:42:38;;;;;;;60.40;27.20;;;;;;;-1.56;99.27;98958.97;5011965;28;20036;-82
2022/12/04 04:45:06;;;;;;;79.80;30.45;;;;;;;-1.64;100.00;98943.31;5017243;28;20037;-82
2022/12/04 04:48:04;;;;;;;70.78;30.08;;;;;;;-1.58;100.00;98966.19;5016931;28;20040;-82
2022/12/04 04:50:32;;;;;;;74.68;31.75;;;;;;;-1.59;99.76;98951.44;5015091;28;20046;-82
2022/12/04 04:53:04;;;;;;;61.38;29.05;;;;;;;-1.57;100.00;98941.63;5020794;28;20100;-82
2022/12/04 04:55:33;;;;;;;77.90;30.70;;;;;;;-1.38;99.64;98953.50;5003616;28;20037;-82
2022/12/04 04:58:13;;;;;;;73.57;31.85;;;;;;;-1.69;99.09;98925.50;5016727;28;20017;-82
2022/12/04 05:00:46;;;;;;;76.10;29.08;;;;;;;-1.77;99.64;98938.59;5017824;28;20029;-82
2022/12/04 05:03:13;;;;;;;70.25;29.58;;;;;;;-1.20;100.00;98951.47;5003018;28;20057;-82
2022/12/04 05:05:38;;;;;;;74.57;31.58;;;;;;;-1.61;99.16;98941.16;5019282;28;20025;-82
2022/12/04 05:08:03;;;;;;;75.85;31.95;;;;;;;-1.77;100.00;98928.13;5023236;28;20474;-83
2022/12/04 05:10:29;;;;;;;78.43;31.92;;;;;;;-1.59;100.00;98939.19;5004429;28;20037;-83
2022/12/04 05:12:54;;;;;;;79.25;34.40;;;;;;;-1.36;100.00;98964.63;5005952;28;20029;-82
2022/12/04 05:15:19;;;;;;;66.93;29.10;;;;;;;-1.03;99.78;98963.50;5010492;28;20127;-82
2022/12/04 05:17:45;;;;;;;77.25;32.22;;;;;;;-1.37;98.87;98969.03;5013527;28;20040;-82
2022/12/04 05:20:10;;;;;;;72.15;30.70;;;;;;;-1.52;99.42;98958.47;5022008;28;20037;-83
2022/12/04 05:22:36;;;;;;;72.40;31.20;;;;;;;-1.41;99.93;98974.78;5025607;28;20513;-83
2022/12/04 05:25:03;;;;;;;76.22;31.88;;;;;;;-1.62;99.92;98951.81;5019280;28;20032;-82
2022/12/04 05:27:29;;;;;;;78.20;34.45;;;;;;;-1.60;100.00;98949.84;5036160;28;20132;-83
2022/12/04 05:29:56;;;;;;;78.13;29.35;;;;;;;-1.35;100.00;98956.59;5021559;28;20030;-82
2022/12/04 05:32:24;;;;;;;93.63;33.92;;;;;;;-1.61;100.00;98935.09;5020529;28;20037;-82
2022/12/04 05:34:51;;;;;;;80.88;32.50;;;;;;;-1.53;100.00;98942.94;5014078;28;20025;-82
2022/12/04 05:37:16;;;;;;;84.05;33.92;;;;;;;-1.60;100.00;98932.34;5005128;28;20118;-82
2022/12/04 05:39:42;;;;;;;84.07;32.15;;;;;;;-1.40;100.00;98937.16;5020467;28;20034;-82
2022/12/04 05:42:07;;;;;;;87.90;33.67;;;;;;;-1.42;100.00;98950.41;5019715;28;20033;-83
2022/12/04 05:44:33;;;;;;;88.35;34.10;;;;;;;-1.56;100.00;98946.72;5019112;28;20104;-82
2022/12/04 05:46:58;;;;;;;84.20;33.92;;;;;;;-1.45;100.00;98934.22;5008501;28;20037;-83
2022/12/04 05:49:24;;;;;;;75.93;31.52;;;;;;;-1.28;100.00;98949.69;4990047;28;20025;-82
2022/12/04 05:51:50;;;;;;;80.03;31.60;;;;;;;-1.57;100.00;98924.13;5019192;28;20099;-82
2022/12/04 05:54:17;;;;;;;77.78;34.70;;;;;;;-1.49;100.00;98935.56;5005215;28;20045;-82
2022/12/04 05:56:42;;;;;;;93.28;35.78;;;;;;;-1.57;100.00;98963.38;5002757;28;20030;-82
2022/12/04 05:59:08;;;;;;;92.53;34.72;;;;;;;-1.36;100.00;98962.81;5006537;28;20386;-82
2022/12/04 06:01:33;;;;;;;87.18;35.05;;;;;;;-1.48;100.00;98964.16;5022253;28;20034;-83
2022/12/04 06:03:58;;;;;;;87.30;35.15;;;;;;;-1.57;100.00;98941.63;5011384;28;20316;-82
2022/12/04 06:06:24;;;;;;;79.60;33.13;;;;;;;-1.22;100.00;98963.91;5022285;28;20045;-83
2022/12/04 06:08:52;;;;;;;80.40;34.15;;;;;;;-1.31;100.00;98954.47;5029900;28;20748;-82
2022/12/04 06:11:21;;;;;;;93.80;36.67;;;;;;;-1.51;100.00;98948.81;5017515;28;20505;-83
2022/12/04 06:13:46;;;;;;;78.68;34.25;;;;;;;-1.51;100.00;98967.16;5019070;28;20116;-82
2022/12/04 06:16:13;;;;;;;81.95;32.80;;;;;;;-1.40;100.00;98958.09;5018470;28;20036;-82
2022/12/04 06:18:38;;;;;;;93.40;37.47;;;;;;;-1.56;100.00;98945.88;5019753;28;20060;-83
2022/12/04 06:21:04;;;;;;;88.90;34.58;;;;;;;-1.59;100.00;98935.75;5016872;28;20029;-83
2022/12/04 06:23:29;;;;;;;80.32;35.50;;;;;;;-1.25;100.00;98959.00;5002436;28;20029;-82
2022/12/04 06:25:54;;;;;;;74.38;31.27;;;;;;;-1.44;100.00;98957.59;5021306;28;20120;-83
2022/12/04 06:28:20;;;;;;;80.72;31.17;;;;;;;-1.47;100.00;98944.06;5011849;28;20675;-83
2022/12/04 06:30:45;;;;;;;78.43;32.63;;;;;;;-1.55;100.00;98950.94;5004612;28;20067;-83
2022/12/04 06:33:10;;;;;;;81.68;31.35;;;;;;;-1.52;100.00;98958.47;4991191;28;20100;-83
2022/12/04 06:35:36;;;;;;;77.00;31.77;;;;;;;-1.52;100.00;98934.09;5004317;28;20136;-83
2022/12/04 06:38:01;;;;;;;79.47;33.70;;;;;;;-1.45;100.00;98916.72;5004518;28;20083;-83
2022/12/04 06:40:26;;;;;;;83.07;30.83;;;;;;;-1.43;100.00;98959.25;5021334;28;21628;-83
2022/12/04 06:42:52;;;;;;;75.97;31.42;;;;;;;-1.52;100.00;98968.13;5021402;28;20033;-83
2022/12/04 06:45:17;;;;;;;68.60;31.17;;;;;;;-1.35;100.00;98953.16;5019904;28;20037;-83
2022/12/04 06:47:43;;;;;;;76.82;34.30;;;;;;;-1.30;100.00;98977.84;5002386;28;20140;-83
2022/12/04 06:50:08;;;;;;;78.30;31.65;;;;;;;-1.51;100.00;98951.44;5018105;28;20037;-82
2022/12/04 06:52:34;;;;;;;76.78;32.58;;;;;;;-1.53;100.00;98962.06;5004252;28;20159;-82
2022/12/04 06:54:59;;;;;;;76.78;30.80;;;;;;;-1.51;100.00;98951.44;5000920;28;20486;-82
2022/12/04 06:57:24;;;;;;;75.47;31.13;;;;;;;-1.38;100.00;98966.59;5016449;28;20030;-83
2022/12/04 06:59:50;;;;;;;82.93;33.63;;;;;;;-1.44;100.00;98969.91;5021699;28;20033;-83
2022/12/04 07:02:15;;;;;;;67.80;32.50;;;;;;;-1.64;100.00;98943.31;5016621;28;20478;-83
2022/12/04 07:04:41;;;;;;;76.88;31.95;;;;;;;-1.65;100.00;98932.03;5021920;28;20137;-83
2022/12/04 07:07:09;;;;;;;73.15;31.73;;;;;;;-1.40;100.00;98974.63;5005188;28;20029;-82
2022/12/04 07:09:35;;;;;;;82.93;31.63;;;;;;;-1.33;100.00;98974.75;5023053;28;20021;-83
2022/12/04 07:12:00;;;;;;;84.32;33.55;;;;;;;-1.46;100.00;98950.94;5020792;28;20565;-83
2022/12/04 07:14:26;;;;;;;76.35;33.30;;;;;;;-1.39;100.00;98968.41;5006501;28;20038;-82
2022/12/04 07:16:51;;;;;;;78.00;32.28;;;;;;;-1.59;100.00;98962.75;5017251;28;20576;-82
2022/12/04 07:19:17;;;;;;;79.50;32.63;;;;;;;-1.45;100.00;98966.47;5022894;28;20037;-83
2022/12/04 07:21:43;;;;;;;74.72;31.85;;;;;;;-1.34;100.00;98975.75;5022814;28;20036;-82
2022/12/04 07:24:14;;;;;;;71.50;33.35;;;;;;;-1.27;100.00;98981.94;5019113;28;20449;-82
2022/12/04 07:26:39;;;;;;;68.45;27.90;;;;;;;-1.38;100.00;98964.81;5016663;28;20650;-82
2022/12/04 07:29:04;;;;;;;82.15;32.75;;;;;;;-1.35;100.00;98972.31;5019871;28;20029;-83
2022/12/04 07:31:30;;;;;;;71.30;31.60;;;;;;;-1.40;100.00;98974.63;5003801;28;20103;-83
2022/12/04 07:33:56;;;;;;;66.72;31.33;;;;;;;-1.36;100.00;98977.72;5015994;28;20040;-82
2022/12/04 07:36:23;;;;;;;70.85;30.50;;;;;;;-1.30;100.00;98966.56;5019725;28;20132;-83
2022/12/04 07:38:49;;;;;;;74.65;30.98;;;;;;;-1.64;100.00;98927.63;5012876;28;20033;-82
2022/12/04 07:41:15;;;;;;;71.45;30.70;;;;;;;-1.33;100.00;98962.47;5022249;28;20449;-83
2022/12/04 07:43:41;;;;;;;70.97;29.65;;;;;;;-1.47;100.00;98950.13;5018387;28;20120;-83
2022/12/04 07:46:13;;;;;;;74.68;30.15;;;;;;;-1.28;100.00;98961.97;5018108;28;20381;-82
2022/12/04 07:48:39;;;;;;;63.53;28.67;;;;;;;-1.34;99.96;98946.94;5016880;28;20034;-82
2022/12/04 07:51:13;;;;;;;64.32;28.58;;;;;;;-1.27;100.00;98974.91;5017188;28;20128;-83
2022/12/04 07:53:38;;;;;;;74.43;32.85;;;;;;;-1.39;99.96;98965.78;5018181;28;20033;-83
2022/12/04 07:56:04;;;;;;;73.95;32.17;;;;;;;-1.36;100.00;98959.38;5003156;28;20033;-82
2022/12/04 07:58:30;;;;;;;68.75;31.38;;;;;;;-1.45;100.00;98966.47;5014128;28;20029;-83
2022/12/04 08:01:11;;;;;;;65.22;30.23;;;;;;;-1.36;99.96;98980.34;5018756;28;20037;-83
2022/12/04 08:03:37;;;;;;;61.15;29.70;;;;;;;-1.47;100.00;98962.38;5010400;28;20498;-82
2022/12/04 08:06:04;;;;;;;74.18;31.98;;;;;;;-1.25;99.68;98977.34;4998688;28;20212;-82
2022/12/04 08:08:30;;;;;;;64.03;29.17;;;;;;;-1.42;99.87;98952.22;5016347;28;20037;-82
2022/12/04 08:10:56;;;;;;;62.17;28.58;;;;;;;-1.39;99.78;98968.41;5015099;28;20095;-83
2022/12/04 08:13:21;;;;;;;75.47;30.88;;;;;;;-1.56;99.41;98940.66;4983954;28;20030;-82
2022/12/04 08:15:46;;;;;;;67.05;29.75;;;;;;;-1.27;100.00;98974.09;5017677;28;20052;-82
2022/12/04 08:18:12;;;;;;;64.28;27.67;;;;;;;-1.37;99.81;98970.84;5019987;28;20049;-82
2022/12/04 08:20:37;;;;;;;56.92;27.65;;;;;;;-1.40;100.00;98961.53;5021285;28;20099;-83
2022/12/04 08:23:02;;;;;;;66.97;30.08;;;;;;;-2.21;99.96;98822.38;4997571;28;20049;-82
2022/12/04 08:25:28;;;;;;;63.83;29.38;;;;;;;-1.28;99.73;98978.50;5001906;28;20517;-83
2022/12/04 08:27:53;;;;;;;61.10;30.42;;;;;;;-1.37;99.85;98963.81;5000644;28;20059;-82
2022/12/04 08:30:19;;;;;;;62.72;30.25;;;;;;;-0.95;99.49;98976.53;5015441;28;20038;-82
2022/12/04 08:32:44;;;;;;;61.55;30.70;;;;;;;-1.17;99.55;98966.81;5023720;28;20038;-83
2022/12/04 08:35:09;;;;;;;77.55;33.28;;;;;;;-1.24;99.69;98965.88;5017137;28;20039;-83
2022/12/04 08:37:35;;;;;;;73.05;32.30;;;;;;;-1.24;99.60;98965.88;5017810;28;20025;-83
2022/12/04 08:40:00;;;;;;;67.63;30.27;;;;;;;-1.38;99.39;98940.41;5018779;28;20037;-82
2022/12/04 08:42:26;;;;;;;63.20;29.40;;;;;;;-1.17;99.51;98966.81;5009305;28;20120;-82
2022/12/04 08:44:51;;;;;;;70.95;32.35;;;;;;;-1.32;99.88;98958.88;5024471;28;20172;-82
2022/12/04 08:47:16;;;;;;;63.90;29.70;;;;;;;-1.34;99.77;98957.41;5023779;28;20116;-82
2022/12/04 08:49:42;;;;;;;66.40;30.90;;;;;;;-1.17;99.78;98966.81;5011152;28;20030;-82
2022/12/04 08:52:07;;;;;;;63.08;29.25;;;;;;;-1.20;99.59;98970.59;5018057;28;20038;-83
2022/12/04 08:54:33;;;;;;;71.00;31.52;;;;;;;-1.31;100.00;98949.22;5022577;28;20034;-82
2022/12/04 08:56:58;;;;;;;82.88;34.08;;;;;;;-1.19;99.59;98968.81;5009699;28;20040;-82
2022/12/04 08:59:23;;;;;;;64.55;32.85;;;;;;;-1.10;100.00;98958.13;5026496;28;20034;-82
2022/12/04 09:01:50;;;;;;;70.63;31.77;;;;;;;-1.21;99.22;98944.59;5024182;28;20116;-82
2022/12/04 09:04:17;;;;;;;75.22;33.22;;;;;;;-0.90;99.04;98955.88;5021148;28;22051;-82
2022/12/04 09:06:42;;;;;;;71.00;34.15;;;;;;;-1.09;99.37;98954.50;5022264;28;20206;-82
2022/12/04 09:09:08;;;;;;;81.82;35.13;;;;;;;-1.01;98.99;98954.47;5021138;28;20037;-83
2022/12/04 09:11:33;;;;;;;80.78;38.58;;;;;;;-1.05;99.15;98970.72;5009517;28;20040;-82
2022/12/04 09:14:00;;;;;;;75.28;34.78;;;;;;;-1.22;99.31;98938.53;5027218;28;20070;-82
2022/12/04 09:16:26;;;;;;;77.55;33.78;;;;;;;-1.11;99.58;98966.13;5023357;28;20734;-83
2022/12/04 09:18:52;;;;;;;64.72;29.23;;;;;;;-1.15;99.68;98963.06;5007666;28;20117;-82
2022/12/04 09:21:20;;;;;;;65.38;31.77;;;;;;;-1.14;99.17;98966.50;5010030;28;20044;-83
2022/12/04 09:23:46;;;;;;;61.92;28.98;;;;;;;-1.17;99.67;98961.59;5025812;28;20045;-82
2022/12/04 09:26:18;;;;;;;68.60;32.90;;;;;;;-0.88;99.25;98977.47;5026787;28;20115;-82
2022/12/04 09:28:45;;;;;;;72.82;30.00;;;;;;;-0.98;98.46;98967.22;5023543;28;20064;-83
2022/12/04 09:31:10;;;;;;;62.00;29.50;;;;;;;-1.09;99.44;98964.19;5022931;28;20045;-84
2022/12/04 09:33:36;;;;;;;76.55;35.17;;;;;;;-0.98;98.64;98971.63;5021351;28;20021;-83
2022/12/04 09:36:01;;;;;;;64.25;32.92;;;;;;;-1.18;99.23;98960.75;5022035;28;20033;-83
2022/12/04 09:38:28;;;;;;;67.60;29.95;;;;;;;-1.12;98.67;98944.38;5003001;28;20037;-83
2022/12/04 09:41:17;;;;;;;75.50;35.85;;;;;;;-0.97;98.81;98968.84;5007493;28;20091;-83
2022/12/04 09:43:49;;;;;;;89.07;43.22;;;;;;;-1.10;99.08;98960.75;5024964;28;20064;-84
2022/12/04 09:46:37;;;;;;;69.85;31.33;;;;;;;-1.22;99.25;98954.25;5036101;28;20578;-83
2022/12/04 09:49:11;;;;;;;68.32;32.10;;;;;;;-1.21;99.06;98945.41;5019994;28;20033;-83
2022/12/04 09:51:39;;;;;;;63.88;33.38;;;;;;;-1.05;98.93;98957.63;5024041;28;20496;-83
2022/12/04 09:54:14;;;;;;;58.72;28.70;;;;;;;-1.14;99.02;98956.03;5036642;28;20125;-84
2022/12/04 09:56:42;;;;;;;60.93;30.10;;;;;;;-1.26;99.50;98946.91;5016975;28;20128;-83
2022/12/04 09:59:07;;;;;;;61.00;30.23;;;;;;;-1.13;99.72;98966.31;5023795;28;20289;-84
2022/12/04 10:01:56;;;;;;;58.50;28.95;;;;;;;-1.27;99.24;98940.88;5020896;28;20029;-83
2022/12/04 10:04:21;;;;;;;64.68;32.50;;;;;;;-1.11;99.86;98955.66;5025857;28;20028;-82
2022/12/04 10:07:13;;;;;;;66.78;32.08;;;;;;;-1.10;99.40;98952.88;5017280;28;20042;-84
2022/12/04 10:09:47;;;;;;;60.97;28.77;;;;;;;-0.96;99.41;98961.81;5032354;28;20037;-83
2022/12/04 10:12:22;;;;;;;58.72;27.73;;;;;;;-0.99;99.14;98955.13;5019051;28;20025;-83
2022/12/04 10:15:19;;;;;;;68.70;32.65;;;;;;;-0.93;98.96;98948.34;5019732;28;20640;-83
2022/12/04 10:17:50;;;;;;;71.60;29.30;;;;;;;-0.73;99.51;98938.25;5034889;28;20045;-83
2022/12/04 10:20:42;;;;;;;69.15;30.17;;;;;;;-0.96;99.03;98933.00;5024809;28;20029;-83
2022/12/04 10:23:10;;;;;;;68.63;30.08;;;;;;;-0.98;99.22;98950.69;5024786;28;20041;-83
2022/12/04 10:25:38;;;;;;;57.92;27.52;;;;;;;-1.12;99.64;98925.25;5024779;28;20029;-83
2022/12/04 10:28:25;;;;;;;60.20;29.00;;;;;;;-0.98;99.21;98942.81;5018126;28;20102;-83
2022/12/04 10:30:55;;;;;;;64.43;29.33;;;;;;;-0.86;98.92;98930.97;5023279;28;20388;-83
2022/12/04 10:33:34;;;;;;;62.30;28.67;;;;;;;-0.93;99.07;98940.50;5022156;28;20037;-83
2022/12/04 10:36:01;;;;;;;60.03;29.15;;;;;;;-0.81;99.44;98944.38;5027447;28;20111;-83
2022/12/04 10:38:41;;;;;;;70.95;32.10;;;;;;;-0.83;99.15;98938.50;5029673;28;21704;-84
2022/12/04 10:41:43;;;;;;;72.60;32.72;;;;;;;-0.78;99.72;98936.16;5046897;28;20056;-83
2022/12/04 10:44:17;;;;;;;62.25;31.10;;;;;;;-0.99;99.02;98920.25;5025621;28;20025;-84
2022/12/04 10:46:43;;;;;;;74.38;31.42;;;;;;;-0.85;99.60;98941.25;5028430;28;20025;-83
2022/12/04 10:49:26;;;;;;;80.90;35.03;;;;;;;-0.93;99.40;98945.75;5025514;28;20034;-84
2022/12/04 10:51:51;;;;;;;73.45;34.65;;;;;;;-0.98;100.00;98935.78;5028155;28;20029;-84
2022/12/04 10:54:26;;;;;;;82.05;35.63;;;;;;;-0.89;100.00;98942.59;5026439;28;20037;-83
2022/12/04 10:57:06;;;;;;;78.50;33.63;;;;;;;-0.95;100.00;98945.09;5030012;28;20709;-84
2022/12/04 10:59:32;;;;;;;79.13;37.30;;;;;;;-0.94;99.99;98923.97;5025621;28;20032;-83
2022/12/04 11:02:34;;;;;;;84.60;36.22;;;;;;;-0.85;99.22;98936.03;5009870;28;20033;-83
2022/12/04 11:05:22;;;;;;;88.22;35.60;;;;;;;-1.61;99.96;98852.19;5027308;28;20045;-83
2022/12/04 11:07:53;;;;;;;93.95;40.85;;;;;;;-1.72;100.00;98766.25;5023945;28;20033;-83
2022/12/04 11:10:40;;;;;;;78.25;33.90;;;;;;;-0.84;100.00;98937.66;5028029;28;20025;-83
2022/12/04 11:13:33;;;;;;;79.95;34.72;;;;;;;-1.35;99.16;98781.22;5015603;28;20034;-83
2022/12/04 11:16:07;;;;;;;86.18;36.28;;;;;;;-1.04;99.08;98905.06;5013853;28;20037;-83
2022/12/04 11:18:56;;;;;;;80.95;36.75;;;;;;;-1.48;99.79;98806.31;5019968;28;20489;-83
2022/12/04 11:21:44;;;;;;;77.57;33.33;;;;;;;-1.71;99.48;98786.22;5032525;28;20091;-84
2022/12/04 11:24:38;;;;;;;60.53;30.83;;;;;;;-1.77;99.52;98791.31;5058059;28;20064;-83
2022/12/04 11:27:06;;;;;;;76.95;35.13;;;;;;;-1.48;99.40;98788.00;5031934;28;20120;-83
2022/12/04 11:29:50;;;;;;;76.60;34.22;;;;;;;-1.51;99.00;98781.34;5035215;28;20029;-83
2022/12/04 11:32:25;;;;;;;68.78;31.75;;;;;;;-0.76;98.65;98929.75;5036530;28;20039;-82
2022/12/04 11:34:54;;;;;;;83.70;37.70;;;;;;;-1.17;99.23;98862.09;5036648;28;20034;-82
2022/12/04 11:37:33;;;;;;;70.78;35.58;;;;;;;-0.81;99.10;98936.50;5037918;28;20079;-83
2022/12/04 11:40:02;;;;;;;67.20;35.45;;;;;;;-0.84;99.32;98927.19;5016588;28;20022;-83
2022/12/04 11:42:29;;;;;;;63.60;30.85;;;;;;;-0.80;99.32;98930.25;5038041;28;20037;-83